createdAt,value
2019-05-16T00:09:29.014Z,966.8
2019-05-16T00:19:32.450Z,966.6
2019-05-16T00:29:38.483Z,966.3
2019-05-16T00:39:41.952Z,966.6
2019-05-16T00:49:47.807Z,966.4
2019-05-16T00:59:51.408Z,959.6
2019-05-16T01:09:54.810Z,958.9
2019-05-16T01:19:58.347Z,959
2019-05-16T01:30:01.816Z,958.8
2019-05-16T01:40:05.263Z,959
2019-05-16T01:50:09.244Z,958.5
2019-05-16T02:00:12.666Z,960.3
2019-05-16T02:10:18.500Z,959.2
2019-05-16T02:20:21.973Z,960.3
2019-05-16T02:30:25.410Z,958.8
2019-05-16T02:40:31.826Z,958.9
2019-05-16T02:50:35.275Z,959.1
2019-05-16T03:00:43.317Z,959.3
2019-05-16T03:10:46.833Z,959
2019-05-16T03:20:51.537Z,958.8
2019-05-16T03:30:55.543Z,959.2
2019-05-16T03:41:01.470Z,959.8
2019-05-16T03:51:04.958Z,959.3
2019-05-16T04:01:12.034Z,959.3
2019-05-16T04:11:23.988Z,959.1
2019-05-16T04:21:27.479Z,959
2019-05-16T04:31:31.445Z,959.1
2019-05-16T04:41:34.919Z,958.9
2019-05-16T04:51:42.004Z,959.2
2019-05-16T05:01:45.469Z,958
2019-05-16T05:11:52.448Z,965.1
2019-05-16T05:21:55.895Z,957.9
2019-05-16T05:32:05.917Z,964.1
2019-05-16T05:42:10.918Z,964.9
2019-05-16T05:52:14.368Z,961.8
2019-05-16T06:02:20.525Z,958
2019-05-16T06:12:24.019Z,961.6
2019-05-16T06:22:30.218Z,961.7
2019-05-16T06:32:33.658Z,960.7
2019-05-16T06:42:37.100Z,960.6
2019-05-16T06:52:41.308Z,959.7
2019-05-16T07:02:44.764Z,960.5
2019-05-16T07:12:50.792Z,958.8
2019-05-16T07:22:54.236Z,960.2
2019-05-16T07:32:57.680Z,959.9
2019-05-16T07:43:01.078Z,959.8
2019-05-16T07:53:04.518Z,958.3
2019-05-16T08:03:10.961Z,958.3
2019-05-16T08:13:21.578Z,958.9
2019-05-16T08:23:25.027Z,960.1
2019-05-16T08:33:32.494Z,959.7
2019-05-16T08:43:35.926Z,960.4
2019-05-16T08:53:44.020Z,959.9
2019-05-16T09:03:47.535Z,959.7
2019-05-16T09:13:51.040Z,959.8
2019-05-16T09:23:54.504Z,960.4
2019-05-16T09:33:57.891Z,959.5
2019-05-16T09:44:01.338Z,959.5
2019-05-16T09:54:07.636Z,959.3
2019-05-16T10:04:11.104Z,958.1
2019-05-16T10:14:14.544Z,957.4
2019-05-16T10:24:18.004Z,958.1
2019-05-16T10:34:21.443Z,958.9
2019-05-16T10:44:28.804Z,957.3
2019-05-16T10:54:32.532Z,956.9
2019-05-16T11:05:33.898Z,956.9
2019-05-16T11:15:39.513Z,956.9
2019-05-16T11:25:42.963Z,957
2019-05-16T11:35:48.087Z,958
2019-05-16T11:45:51.515Z,957.6
2019-05-16T11:56:02.528Z,957.3
2019-05-16T12:06:11.641Z,956.4
2019-05-16T12:16:19.317Z,957
2019-05-16T12:26:22.786Z,956.8
2019-05-16T12:36:27.189Z,963.1
2019-05-16T12:46:30.683Z,963.1
2019-05-16T12:56:34.157Z,962.8
2019-05-16T13:06:37.622Z,962.8
2019-05-16T13:16:41.079Z,962.1
2019-05-16T13:26:44.589Z,962.2
2019-05-16T13:36:48.143Z,961.9
2019-05-16T13:46:51.561Z,962.2
2019-05-16T13:56:57.663Z,955.1
2019-05-16T14:07:01.178Z,961.7
2019-05-16T14:17:18.118Z,961.7
2019-05-16T14:27:21.639Z,961.2
2019-05-16T14:37:27.191Z,961.9
2019-05-16T14:47:30.630Z,961.7
2019-05-16T14:57:36.591Z,961
2019-05-16T15:07:40.254Z,961.1
2019-05-16T15:17:43.708Z,961.4
2019-05-16T15:27:48.282Z,961
2019-05-16T15:37:51.745Z,960.2
2019-05-16T15:48:00.190Z,960.6
2019-05-16T15:58:03.648Z,960.9
2019-05-16T16:08:07.366Z,960.2
2019-05-16T16:18:10.826Z,961
2019-05-16T16:28:14.295Z,960.9
2019-05-16T16:38:17.749Z,960.8
2019-05-16T16:48:21.181Z,960.7
2019-05-16T16:58:27.007Z,960.8
2019-05-16T17:08:30.759Z,961.1
2019-05-16T17:18:36.734Z,961
2019-05-16T17:28:40.403Z,953.7
2019-05-16T17:38:43.876Z,953.6
2019-05-16T17:48:47.336Z,953.9
2019-05-16T17:58:50.754Z,954.3
2019-05-16T18:08:54.207Z,954.3
2019-05-16T18:18:57.913Z,954.4
2019-05-16T18:29:01.366Z,954.5
2019-05-16T18:39:06.905Z,954.7
2019-05-16T18:49:10.391Z,955.7
2019-05-16T18:59:13.827Z,955.7
2019-05-16T19:09:17.291Z,955.6
2019-05-16T19:19:20.753Z,956.1
2019-05-16T19:29:26.731Z,955.6
2019-05-16T19:39:30.193Z,956
2019-05-16T19:49:33.692Z,954.8
2019-05-16T19:59:37.157Z,954.9
2019-05-16T20:09:40.634Z,955.4
2019-05-16T20:19:44.068Z,956.7
2019-05-16T20:29:47.840Z,955.8
2019-05-16T20:39:51.288Z,956.1
2019-05-16T20:49:57.342Z,957.3
2019-05-16T21:00:00.785Z,956.3
2019-05-16T21:10:04.226Z,956.8
2019-05-16T21:20:08.080Z,956.6
2019-05-16T21:30:11.544Z,956.7
2019-05-16T21:40:17.308Z,956.8
2019-05-16T21:50:20.748Z,956.6
2019-05-16T22:00:26.850Z,956.9
2019-05-16T22:10:30.331Z,957
2019-05-16T22:20:33.794Z,956.8
2019-05-16T22:30:37.250Z,957
2019-05-16T22:40:40.732Z,957.3
2019-05-16T22:50:44.158Z,957.3
2019-05-16T23:00:47.625Z,957
2019-05-16T23:10:51.060Z,957.1
2019-05-16T23:20:57.214Z,957.4
2019-05-16T23:31:00.672Z,957.3
2019-05-16T23:41:07.089Z,957.1
2019-05-16T23:51:10.573Z,956.8
